sensor_id;sensor_type;location;lat;lon;timestamp;temperature;humidity
2523;DHT22;1272;53.332;9.860;2022-12-10T00:01:22;0.70;99.90
2523;DHT22;1272;53.332;9.860;2022-12-10T00:03:48;0.70;99.90
2523;DHT22;1272;53.332;9.860;2022-12-10T00:06:17;0.70;99.90
2523;DHT22;1272;53.332;9.860;2022-12-10T00:08:43;0.70;99.90
2523;DHT22;1272;53.332;9.860;2022-12-10T00:11:12;0.70;99.90
2523;DHT22;1272;53.332;9.860;2022-12-10T00:13:38;0.70;99.90
2523;DHT22;1272;53.332;9.860;2022-12-10T00:16:07;0.70;99.90
2523;DHT22;1272;53.332;9.860;2022-12-10T00:18:34;0.70;99.90
2523;DHT22;1272;53.332;9.860;2022-12-10T00:21:09;0.60;99.90
2523;DHT22;1272;53.332;9.860;2022-12-10T00:23:35;0.70;99.90
2523;DHT22;1272;53.332;9.860;2022-12-10T00:26:28;0.70;99.90
2523;DHT22;1272;53.332;9.860;2022-12-10T00:28:54;0.60;99.90
2523;DHT22;1272;53.332;9.860;2022-12-10T00:31:26;0.70;99.90
2523;DHT22;1272;53.332;9.860;2022-12-10T00:33:57;0.70;99.90
2523;DHT22;1272;53.332;9.860;2022-12-10T00:36:27;0.70;99.90
2523;DHT22;1272;53.332;9.860;2022-12-10T00:38:53;0.60;99.90
2523;DHT22;1272;53.332;9.860;2022-12-10T00:41:19;0.70;99.90
2523;DHT22;1272;53.332;9.860;2022-12-10T00:43:45;0.70;99.90
2523;DHT22;1272;53.332;9.860;2022-12-10T00:46:12;0.60;99.90
2523;DHT22;1272;53.332;9.860;2022-12-10T00:48:39;0.60;99.90
2523;DHT22;1272;53.332;9.860;2022-12-10T00:51:22;0.60;99.90
2523;DHT22;1272;53.332;9.860;2022-12-10T00:53:50;0.60;99.90
2523;DHT22;1272;53.332;9.860;2022-12-10T00:56:23;0.60;99.90
2523;DHT22;1272;53.332;9.860;2022-12-10T00:58:50;0.60;99.90
2523;DHT22;1272;53.332;9.860;2022-12-10T01:01:27;0.60;99.90
2523;DHT22;1272;53.332;9.860;2022-12-10T01:03:55;0.70;99.90
2523;DHT22;1272;53.332;9.860;2022-12-10T01:06:29;0.70;99.90
2523;DHT22;1272;53.332;9.860;2022-12-10T01:08:58;0.60;99.90
2523;DHT22;1272;53.332;9.860;2022-12-10T01:11:28;0.60;99.90
2523;DHT22;1272;53.332;9.860;2022-12-10T01:13:54;0.60;99.90
2523;DHT22;1272;53.332;9.860;2022-12-10T01:16:20;0.60;99.90
2523;DHT22;1272;53.332;9.860;2022-12-10T01:18:51;0.60;99.90
2523;DHT22;1272;53.332;9.860;2022-12-10T01:21:18;0.60;99.90
2523;DHT22;1272;53.332;9.860;2022-12-10T01:23:46;0.50;99.90
2523;DHT22;1272;53.332;9.860;2022-12-10T01:28:48;0.60;99.90
2523;DHT22;1272;53.332;9.860;2022-12-10T01:31:20;0.50;99.90
2523;DHT22;1272;53.332;9.860;2022-12-10T01:33:46;0.50;99.90
2523;DHT22;1272;53.332;9.860;2022-12-10T01:36:18;0.60;99.90
2523;DHT22;1272;53.332;9.860;2022-12-10T01:38:44;0.60;99.90
2523;DHT22;1272;53.332;9.860;2022-12-10T01:41:31;0.60;99.90
2523;DHT22;1272;53.332;9.860;2022-12-10T01:44:03;0.60;99.90
2523;DHT22;1272;53.332;9.860;2022-12-10T01:46:32;0.60;99.90
2523;DHT22;1272;53.332;9.860;2022-12-10T01:48:59;0.60;99.90
2523;DHT22;1272;53.332;9.860;2022-12-10T01:51:27;0.60;99.90
2523;DHT22;1272;53.332;9.860;2022-12-10T01:53:54;0.60;99.90
2523;DHT22;1272;53.332;9.860;2022-12-10T01:56:21;0.60;99.90
2523;DHT22;1272;53.332;9.860;2022-12-10T01:58:49;0.60;99.90
2523;DHT22;1272;53.332;9.860;2022-12-10T02:04:25;0.60;99.90
2523;DHT22;1272;53.332;9.860;2022-12-10T02:07:04;0.50;99.90
2523;DHT22;1272;53.332;9.860;2022-12-10T02:09:46;0.50;99.90
2523;DHT22;1272;53.332;9.860;2022-12-10T02:15:04;0.50;99.90
2523;DHT22;1272;53.332;9.860;2022-12-10T02:23:01;0.50;99.90
2523;DHT22;1272;53.332;9.860;2022-12-10T02:31:00;0.60;99.90
2523;DHT22;1272;53.332;9.860;2022-12-10T02:33:28;0.60;99.90
2523;DHT22;1272;53.332;9.860;2022-12-10T02:35:57;0.60;99.90
2523;DHT22;1272;53.332;9.860;2022-12-10T02:38:29;0.60;99.90
2523;DHT22;1272;53.332;9.860;2022-12-10T02:41:01;0.60;99.90
2523;DHT22;1272;53.332;9.860;2022-12-10T02:43:29;0.60;99.90
2523;DHT22;1272;53.332;9.860;2022-12-10T02:45:56;0.70;99.90
2523;DHT22;1272;53.332;9.860;2022-12-10T02:48:23;0.70;99.90
2523;DHT22;1272;53.332;9.860;2022-12-10T02:50:50;0.70;99.90
2523;DHT22;1272;53.332;9.860;2022-12-10T02:53:15;0.60;99.90
2523;DHT22;1272;53.332;9.860;2022-12-10T03:01:12;0.70;99.90
2523;DHT22;1272;53.332;9.860;2022-12-10T03:03:50;0.60;99.90
2523;DHT22;1272;53.332;9.860;2022-12-10T03:06:44;0.60;99.90
2523;DHT22;1272;53.332;9.860;2022-12-10T03:09:17;0.70;99.90
2523;DHT22;1272;53.332;9.860;2022-12-10T03:11:46;0.70;99.90
2523;DHT22;1272;53.332;9.860;2022-12-10T03:14:22;0.70;99.90
2523;DHT22;1272;53.332;9.860;2022-12-10T03:17:02;0.70;99.90
2523;DHT22;1272;53.332;9.860;2022-12-10T03:19:55;0.60;99.90
2523;DHT22;1272;53.332;9.860;2022-12-10T03:22:22;0.60;99.90
2523;DHT22;1272;53.332;9.860;2022-12-10T03:24:48;0.60;99.90
2523;DHT22;1272;53.332;9.860;2022-12-10T03:27:14;0.60;99.90
2523;DHT22;1272;53.332;9.860;2022-12-10T03:29:50;0.60;99.90
2523;DHT22;1272;53.332;9.860;2022-12-10T03:32:19;0.60;99.90
2523;DHT22;1272;53.332;9.860;2022-12-10T03:34:46;0.60;99.90
2523;DHT22;1272;53.332;9.860;2022-12-10T03:37:13;0.60;99.90
2523;DHT22;1272;53.332;9.860;2022-12-10T03:39:40;0.60;99.90
2523;DHT22;1272;53.332;9.860;2022-12-10T03:42:06;0.60;99.90
2523;DHT22;1272;53.332;9.860;2022-12-10T03:44:34;0.60;99.90
2523;DHT22;1272;53.332;9.860;2022-12-10T03:47:02;0.60;99.90
2523;DHT22;1272;53.332;9.860;2022-12-10T03:49:28;0.60;99.90
2523;DHT22;1272;53.332;9.860;2022-12-10T03:51:54;0.60;99.90
2523;DHT22;1272;53.332;9.860;2022-12-10T03:54:20;0.60;99.90
2523;DHT22;1272;53.332;9.860;2022-12-10T03:56:45;0.60;99.90
2523;DHT22;1272;53.332;9.860;2022-12-10T03:59:11;0.60;99.90
2523;DHT22;1272;53.332;9.860;2022-12-10T04:01:37;0.70;99.90
2523;DHT22;1272;53.332;9.860;2022-12-10T04:04:03;0.70;99.90
2523;DHT22;1272;53.332;9.860;2022-12-10T04:06:29;0.70;99.90
2523;DHT22;1272;53.332;9.860;2022-12-10T04:08:55;0.70;99.90
2523;DHT22;1272;53.332;9.860;2022-12-10T04:11:21;0.70;99.90
2523;DHT22;1272;53.332;9.860;2022-12-10T04:13:47;0.70;99.90
2523;DHT22;1272;53.332;9.860;2022-12-10T04:16:32;0.70;99.90
2523;DHT22;1272;53.332;9.860;2022-12-10T04:19:02;0.70;99.90
2523;DHT22;1272;53.332;9.860;2022-12-10T04:21:29;0.70;99.90
2523;DHT22;1272;53.332;9.860;2022-12-10T04:24:15;0.70;99.90
2523;DHT22;1272;53.332;9.860;2022-12-10T04:27:03;0.70;99.90
2523;DHT22;1272;53.332;9.860;2022-12-10T04:29:30;0.70;99.90
2523;DHT22;1272;53.332;9.860;2022-12-10T04:31:57;0.70;99.90
2523;DHT22;1272;53.332;9.860;2022-12-10T04:34:24;0.60;99.90
2523;DHT22;1272;53.332;9.860;2022-12-10T04:36:50;0.70;99.90
2523;DHT22;1272;53.332;9.860;2022-12-10T04:39:16;0.60;99.90
2523;DHT22;1272;53.332;9.860;2022-12-10T04:41:44;0.70;99.90
2523;DHT22;1272;53.332;9.860;2022-12-10T04:44:11;0.70;99.90
2523;DHT22;1272;53.332;9.860;2022-12-10T04:46:37;0.70;99.90
2523;DHT22;1272;53.332;9.860;2022-12-10T04:49:03;0.60;99.90
2523;DHT22;1272;53.332;9.860;2022-12-10T04:51:30;0.60;99.90
2523;DHT22;1272;53.332;9.860;2022-12-10T04:53:56;0.70;99.90
2523;DHT22;1272;53.332;9.860;2022-12-10T04:56:22;0.70;99.90
2523;DHT22;1272;53.332;9.860;2022-12-10T04:58:48;0.70;99.90
2523;DHT22;1272;53.332;9.860;2022-12-10T05:01:13;0.70;99.90
2523;DHT22;1272;53.332;9.860;2022-12-10T05:03:40;0.70;99.90
2523;DHT22;1272;53.332;9.860;2022-12-10T05:06:08;0.70;99.90
2523;DHT22;1272;53.332;9.860;2022-12-10T05:08:35;0.60;99.90
2523;DHT22;1272;53.332;9.860;2022-12-10T05:11:12;0.60;99.90
2523;DHT22;1272;53.332;9.860;2022-12-10T05:13:38;0.60;99.90
2523;DHT22;1272;53.332;9.860;2022-12-10T05:16:06;0.60;99.90
2523;DHT22;1272;53.332;9.860;2022-12-10T05:18:33;0.60;99.90
2523;DHT22;1272;53.332;9.860;2022-12-10T05:21:03;0.50;99.90
2523;DHT22;1272;53.332;9.860;2022-12-10T05:23:30;0.50;99.90
2523;DHT22;1272;53.332;9.860;2022-12-10T05:28:47;0.50;99.90
2523;DHT22;1272;53.332;9.860;2022-12-10T05:31:31;0.60;99.90
2523;DHT22;1272;53.332;9.860;2022-12-10T05:33:58;0.60;99.90
2523;DHT22;1272;53.332;9.860;2022-12-10T05:36:28;0.60;99.90
2523;DHT22;1272;53.332;9.860;2022-12-10T05:38:56;0.60;99.90
2523;DHT22;1272;53.332;9.860;2022-12-10T05:41:24;0.60;99.90
2523;DHT22;1272;53.332;9.860;2022-12-10T05:43:50;0.60;99.90
2523;DHT22;1272;53.332;9.860;2022-12-10T05:46:21;0.60;99.90
2523;DHT22;1272;53.332;9.860;2022-12-10T05:48:51;0.70;99.90
2523;DHT22;1272;53.332;9.860;2022-12-10T05:51:19;0.60;99.90
2523;DHT22;1272;53.332;9.860;2022-12-10T05:53:45;0.60;99.90
2523;DHT22;1272;53.332;9.860;2022-12-10T05:56:15;0.60;99.90
2523;DHT22;1272;53.332;9.860;2022-12-10T05:58:42;0.60;99.90
2523;DHT22;1272;53.332;9.860;2022-12-10T06:01:11;0.60;99.90
2523;DHT22;1272;53.332;9.860;2022-12-10T06:03:36;0.60;99.90
2523;DHT22;1272;53.332;9.860;2022-12-10T06:06:03;0.50;99.90
2523;DHT22;1272;53.332;9.860;2022-12-10T06:08:28;0.50;99.90
2523;DHT22;1272;53.332;9.860;2022-12-10T06:10:54;0.50;99.90
2523;DHT22;1272;53.332;9.860;2022-12-10T06:13:21;0.60;99.90
2523;DHT22;1272;53.332;9.860;2022-12-10T06:15:47;0.50;99.90
2523;DHT22;1272;53.332;9.860;2022-12-10T06:18:12;0.50;99.90
2523;DHT22;1272;53.332;9.860;2022-12-10T06:20:39;0.50;99.90
2523;DHT22;1272;53.332;9.860;2022-12-10T06:23:05;0.50;99.90
2523;DHT22;1272;53.332;9.860;2022-12-10T06:25:31;0.50;99.90
2523;DHT22;1272;53.332;9.860;2022-12-10T06:27:57;0.40;99.90
2523;DHT22;1272;53.332;9.860;2022-12-10T06:30:23;0.40;99.90
2523;DHT22;1272;53.332;9.860;2022-12-10T06:32:48;0.40;99.90
2523;DHT22;1272;53.332;9.860;2022-12-10T06:35:14;0.40;99.90
2523;DHT22;1272;53.332;9.860;2022-12-10T06:37:40;0.40;99.90
2523;DHT22;1272;53.332;9.860;2022-12-10T06:40:06;0.50;99.90
2523;DHT22;1272;53.332;9.860;2022-12-10T06:42:32;0.50;99.90
2523;DHT22;1272;53.332;9.860;2022-12-10T06:44:58;0.40;99.90
2523;DHT22;1272;53.332;9.860;2022-12-10T06:47:24;0.40;99.90
2523;DHT22;1272;53.332;9.860;2022-12-10T06:49:49;0.50;99.90
2523;DHT22;1272;53.332;9.860;2022-12-10T06:52:15;0.50;99.90
2523;DHT22;1272;53.332;9.860;2022-12-10T06:54:41;0.50;99.90
2523;DHT22;1272;53.332;9.860;2022-12-10T06:57:07;0.50;99.90
2523;DHT22;1272;53.332;9.860;2022-12-10T06:59:33;0.40;99.90
2523;DHT22;1272;53.332;9.860;2022-12-10T07:01:58;0.40;99.90
2523;DHT22;1272;53.332;9.860;2022-12-10T07:04:24;0.50;99.90
2523;DHT22;1272;53.332;9.860;2022-12-10T07:06:50;0.50;99.90
2523;DHT22;1272;53.332;9.860;2022-12-10T07:09:16;0.50;99.90
2523;DHT22;1272;53.332;9.860;2022-12-10T07:11:42;0.40;99.90
2523;DHT22;1272;53.332;9.860;2022-12-10T07:14:10;0.50;99.90
2523;DHT22;1272;53.332;9.860;2022-12-10T07:16:38;0.50;99.90
2523;DHT22;1272;53.332;9.860;2022-12-10T07:19:04;0.40;99.90
2523;DHT22;1272;53.332;9.860;2022-12-10T07:21:35;0.40;99.90
2523;DHT22;1272;53.332;9.860;2022-12-10T07:24:03;0.40;99.90
2523;DHT22;1272;53.332;9.860;2022-12-10T07:26:32;0.40;99.90
2523;DHT22;1272;53.332;9.860;2022-12-10T07:28:59;0.40;99.90
2523;DHT22;1272;53.332;9.860;2022-12-10T07:31:25;0.40;99.90
2523;DHT22;1272;53.332;9.860;2022-12-10T07:33:52;0.50;99.90
2523;DHT22;1272;53.332;9.860;2022-12-10T07:36:19;0.40;99.90
2523;DHT22;1272;53.332;9.860;2022-12-10T07:38:45;0.40;99.90
2523;DHT22;1272;53.332;9.860;2022-12-10T07:41:13;0.50;99.90
2523;DHT22;1272;53.332;9.860;2022-12-10T07:43:40;0.50;99.90
2523;DHT22;1272;53.332;9.860;2022-12-10T07:49:02;0.40;99.90
2523;DHT22;1272;53.332;9.860;2022-12-10T07:51:28;0.40;99.90
2523;DHT22;1272;53.332;9.860;2022-12-10T07:53:57;0.40;99.90
2523;DHT22;1272;53.332;9.860;2022-12-10T07:56:23;0.40;99.90
2523;DHT22;1272;53.332;9.860;2022-12-10T07:58:50;0.30;30.20
2523;DHT22;1272;53.332;9.860;2022-12-10T08:01:18;0.40;41.50
2523;DHT22;1272;53.332;9.860;2022-12-10T08:03:45;0.30;37.90
2523;DHT22;1272;53.332;9.860;2022-12-10T08:06:13;0.30;94.10
2523;DHT22;1272;53.332;9.860;2022-12-10T08:08:40;0.30;99.90
2523;DHT22;1272;53.332;9.860;2022-12-10T08:11:07;0.30;99.90
2523;DHT22;1272;53.332;9.860;2022-12-10T08:13:33;0.30;99.90
2523;DHT22;1272;53.332;9.860;2022-12-10T08:16:04;0.30;99.90
2523;DHT22;1272;53.332;9.860;2022-12-10T08:18:34;0.30;99.90
2523;DHT22;1272;53.332;9.860;2022-12-10T08:21:05;0.30;99.90
2523;DHT22;1272;53.332;9.860;2022-12-10T08:23:31;0.30;99.90
2523;DHT22;1272;53.332;9.860;2022-12-10T08:25:57;0.30;99.90
2523;DHT22;1272;53.332;9.860;2022-12-10T08:28:22;0.40;99.90
2523;DHT22;1272;53.332;9.860;2022-12-10T08:30:49;0.30;99.90
2523;DHT22;1272;53.332;9.860;2022-12-10T08:33:17;0.40;99.90
2523;DHT22;1272;53.332;9.860;2022-12-10T08:35:43;0.40;99.90
2523;DHT22;1272;53.332;9.860;2022-12-10T08:38:08;0.30;99.90
2523;DHT22;1272;53.332;9.860;2022-12-10T08:40:37;0.40;99.90
2523;DHT22;1272;53.332;9.860;2022-12-10T08:43:03;0.30;99.90
2523;DHT22;1272;53.332;9.860;2022-12-10T08:45:29;0.40;99.90
2523;DHT22;1272;53.332;9.860;2022-12-10T08:47:55;0.40;99.90
2523;DHT22;1272;53.332;9.860;2022-12-10T08:50:20;0.40;99.90
2523;DHT22;1272;53.332;9.860;2022-12-10T08:52:46;0.40;99.90
2523;DHT22;1272;53.332;9.860;2022-12-10T08:55:11;0.50;99.90
2523;DHT22;1272;53.332;9.860;2022-12-10T08:57:37;0.40;99.90
2523;DHT22;1272;53.332;9.860;2022-12-10T09:00:03;0.40;99.90
2523;DHT22;1272;53.332;9.860;2022-12-10T09:02:29;0.40;99.90
2523;DHT22;1272;53.332;9.860;2022-12-10T09:04:55;0.40;99.90
2523;DHT22;1272;53.332;9.860;2022-12-10T09:07:20;0.40;99.90
2523;DHT22;1272;53.332;9.860;2022-12-10T09:09:47;0.40;99.90
2523;DHT22;1272;53.332;9.860;2022-12-10T09:12:12;0.40;99.90
2523;DHT22;1272;53.332;9.860;2022-12-10T09:14:38;0.40;99.90
2523;DHT22;1272;53.332;9.860;2022-12-10T09:17:05;0.40;99.90
2523;DHT22;1272;53.332;9.860;2022-12-10T09:19:31;0.40;99.90
2523;DHT22;1272;53.332;9.860;2022-12-10T09:21:57;0.40;99.90
2523;DHT22;1272;53.332;9.860;2022-12-10T09:24:23;0.40;99.90
2523;DHT22;1272;53.332;9.860;2022-12-10T09:26:48;0.40;99.90
2523;DHT22;1272;53.332;9.860;2022-12-10T09:29:14;0.50;99.90
2523;DHT22;1272;53.332;9.860;2022-12-10T09:31:42;0.50;99.90
2523;DHT22;1272;53.332;9.860;2022-12-10T09:34:08;0.50;99.90
2523;DHT22;1272;53.332;9.860;2022-12-10T09:36:34;0.50;99.90
2523;DHT22;1272;53.332;9.860;2022-12-10T09:39:00;0.50;99.90
2523;DHT22;1272;53.332;9.860;2022-12-10T09:47:01;0.60;99.90
2523;DHT22;1272;53.332;9.860;2022-12-10T09:52:43;0.60;99.90
2523;DHT22;1272;53.332;9.860;2022-12-10T09:55:32;0.50;99.90
2523;DHT22;1272;53.332;9.860;2022-12-10T09:57:59;0.50;99.90
2523;DHT22;1272;53.332;9.860;2022-12-10T10:00:40;0.50;27.70
2523;DHT22;1272;53.332;9.860;2022-12-10T10:03:12;0.50;71.20
2523;DHT22;1272;53.332;9.860;2022-12-10T10:05:46;0.50;38.60
2523;DHT22;1272;53.332;9.860;2022-12-10T10:10:49;0.40;82.60
2523;DHT22;1272;53.332;9.860;2022-12-10T10:13:47;0.40;90.30
2523;DHT22;1272;53.332;9.860;2022-12-10T10:18:56;0.40;99.90
2523;DHT22;1272;53.332;9.860;2022-12-10T10:21:35;0.40;65.90
2523;DHT22;1272;53.332;9.860;2022-12-10T10:24:03;0.40;94.50
2523;DHT22;1272;53.332;9.860;2022-12-10T10:26:29;0.40;97.40
2523;DHT22;1272;53.332;9.860;2022-12-10T10:29:01;0.40;88.20
2523;DHT22;1272;53.332;9.860;2022-12-10T10:31:30;0.50;98.20
2523;DHT22;1272;53.332;9.860;2022-12-10T10:34:01;0.50;53.60
2523;DHT22;1272;53.332;9.860;2022-12-10T10:36:38;0.40;97.60
2523;DHT22;1272;53.332;9.860;2022-12-10T10:39:10;0.50;99.90
2523;DHT22;1272;53.332;9.860;2022-12-10T10:41:37;0.50;98.40
2523;DHT22;1272;53.332;9.860;2022-12-10T10:44:15;0.60;57.40
2523;DHT22;1272;53.332;9.860;2022-12-10T10:46:42;0.50;13.70
2523;DHT22;1272;53.332;9.860;2022-12-10T10:49:31;0.50;43.90
2523;DHT22;1272;53.332;9.860;2022-12-10T10:52:06;0.50;70.30
2523;DHT22;1272;53.332;9.860;2022-12-10T10:54:42;0.50;53.50
2523;DHT22;1272;53.332;9.860;2022-12-10T10:57:29;0.40;69.20
2523;DHT22;1272;53.332;9.860;2022-12-10T11:00:17;0.50;40.50
2523;DHT22;1272;53.332;9.860;2022-12-10T11:02:44;0.50;54.60
2523;DHT22;1272;53.332;9.860;2022-12-10T11:05:22;0.50;78.40
2523;DHT22;1272;53.332;9.860;2022-12-10T11:08:17;0.50;61.20
2523;DHT22;1272;53.332;9.860;2022-12-10T11:10:51;0.50;1.00
2523;DHT22;1272;53.332;9.860;2022-12-10T11:13:28;0.40;39.20
2523;DHT22;1272;53.332;9.860;2022-12-10T11:16:18;0.40;37.90
2523;DHT22;1272;53.332;9.860;2022-12-10T11:21:22;0.40;99.90
2523;DHT22;1272;53.332;9.860;2022-12-10T11:23:52;0.50;99.90
2523;DHT22;1272;53.332;9.860;2022-12-10T11:29:08;0.50;92.70
2523;DHT22;1272;53.332;9.860;2022-12-10T11:34:33;0.50;90.10
2523;DHT22;1272;53.332;9.860;2022-12-10T11:40:17;0.60;99.90
2523;DHT22;1272;53.332;9.860;2022-12-10T11:43:30;0.60;76.10
2523;DHT22;1272;53.332;9.860;2022-12-10T11:52:06;0.60;82.70
2523;DHT22;1272;53.332;9.860;2022-12-10T12:03:46;0.60;99.90
2523;DHT22;1272;53.332;9.860;2022-12-10T12:09:51;0.60;91.50
2523;DHT22;1272;53.332;9.860;2022-12-10T12:15:32;0.60;98.90
2523;DHT22;1272;53.332;9.860;2022-12-10T12:18:26;0.60;95.30
2523;DHT22;1272;53.332;9.860;2022-12-10T12:20:57;0.60;94.30
2523;DHT22;1272;53.332;9.860;2022-12-10T12:26:13;0.60;94.30
2523;DHT22;1272;53.332;9.860;2022-12-10T12:28:57;0.60;85.60
2523;DHT22;1272;53.332;9.860;2022-12-10T12:31:31;0.60;82.10
2523;DHT22;1272;53.332;9.860;2022-12-10T12:36:42;0.70;5.90
2523;DHT22;1272;53.332;9.860;2022-12-10T12:49:59;0.60;1.00
2523;DHT22;1272;53.332;9.860;2022-12-10T12:55:04;0.60;1.00
2523;DHT22;1272;53.332;9.860;2022-12-10T12:57:49;0.60;1.00
2523;DHT22;1272;53.332;9.860;2022-12-10T13:00:22;0.60;1.00
2523;DHT22;1272;53.332;9.860;2022-12-10T13:03:04;0.60;1.00
2523;DHT22;1272;53.332;9.860;2022-12-10T13:05:36;0.60;1.00
2523;DHT22;1272;53.332;9.860;2022-12-10T13:08:23;0.60;1.00
2523;DHT22;1272;53.332;9.860;2022-12-10T13:15:51;0.60;9.90
2523;DHT22;1272;53.332;9.860;2022-12-10T13:28:40;0.60;2.00
2523;DHT22;1272;53.332;9.860;2022-12-10T13:41:34;0.50;1.00
2523;DHT22;1272;53.332;9.860;2022-12-10T13:44:36;0.50;1.00
2523;DHT22;1272;53.332;9.860;2022-12-10T13:47:26;0.40;1.00
2523;DHT22;1272;53.332;9.860;2022-12-10T13:50:01;0.40;1.00
2523;DHT22;1272;53.332;9.860;2022-12-10T13:58:38;0.50;1.00
2523;DHT22;1272;53.332;9.860;2022-12-10T14:07:19;0.50;1.00
2523;DHT22;1272;53.332;9.860;2022-12-10T14:09:56;0.50;3.30
2523;DHT22;1272;53.332;9.860;2022-12-10T14:12:33;0.50;6.30
2523;DHT22;1272;53.332;9.860;2022-12-10T14:15:13;0.50;20.30
2523;DHT22;1272;53.332;9.860;2022-12-10T14:17:42;0.50;30.80
2523;DHT22;1272;53.332;9.860;2022-12-10T14:20:20;0.50;27.00
2523;DHT22;1272;53.332;9.860;2022-12-10T14:22:51;0.50;1.00
2523;DHT22;1272;53.332;9.860;2022-12-10T14:25:20;0.50;1.00
2523;DHT22;1272;53.332;9.860;2022-12-10T14:27:48;0.50;1.00
2523;DHT22;1272;53.332;9.860;2022-12-10T14:30:17;0.40;1.00
2523;DHT22;1272;53.332;9.860;2022-12-10T14:32:44;0.40;1.00
2523;DHT22;1272;53.332;9.860;2022-12-10T14:35:29;0.40;1.00
2523;DHT22;1272;53.332;9.860;2022-12-10T14:37:57;0.50;1.00
2523;DHT22;1272;53.332;9.860;2022-12-10T14:40:36;0.40;1.00
2523;DHT22;1272;53.332;9.860;2022-12-10T14:43:09;0.50;1.00
2523;DHT22;1272;53.332;9.860;2022-12-10T14:45:45;0.40;1.00
2523;DHT22;1272;53.332;9.860;2022-12-10T14:48:12;0.40;1.00
2523;DHT22;1272;53.332;9.860;2022-12-10T14:50:39;0.40;1.00
2523;DHT22;1272;53.332;9.860;2022-12-10T14:53:08;0.40;1.00
2523;DHT22;1272;53.332;9.860;2022-12-10T14:55:37;0.40;1.00
2523;DHT22;1272;53.332;9.860;2022-12-10T14:58:04;0.40;1.00
2523;DHT22;1272;53.332;9.860;2022-12-10T15:00:32;0.40;25.10
2523;DHT22;1272;53.332;9.860;2022-12-10T15:03:01;0.50;7.90
2523;DHT22;1272;53.332;9.860;2022-12-10T15:05:35;0.40;1.00
2523;DHT22;1272;53.332;9.860;2022-12-10T15:08:15;0.40;5.20
2523;DHT22;1272;53.332;9.860;2022-12-10T15:10:48;0.40;11.70
2523;DHT22;1272;53.332;9.860;2022-12-10T15:13:24;0.40;17.10
2523;DHT22;1272;53.332;9.860;2022-12-10T15:15:52;0.40;27.00
2523;DHT22;1272;53.332;9.860;2022-12-10T15:21:10;0.40;43.40
2523;DHT22;1272;53.332;9.860;2022-12-10T15:23:39;0.40;16.40
2523;DHT22;1272;53.332;9.860;2022-12-10T15:26:27;0.40;8.90
2523;DHT22;1272;53.332;9.860;2022-12-10T15:31:49;0.50;1.00
2523;DHT22;1272;53.332;9.860;2022-12-10T15:34:16;0.50;1.00
2523;DHT22;1272;53.332;9.860;2022-12-10T15:36:50;0.40;1.00
2523;DHT22;1272;53.332;9.860;2022-12-10T15:39:26;0.40;1.00
2523;DHT22;1272;53.332;9.860;2022-12-10T15:45:08;0.40;1.00
2523;DHT22;1272;53.332;9.860;2022-12-10T15:47:36;0.30;1.00
2523;DHT22;1272;53.332;9.860;2022-12-10T15:50:04;0.40;1.00
2523;DHT22;1272;53.332;9.860;2022-12-10T15:52:30;0.40;1.00
2523;DHT22;1272;53.332;9.860;2022-12-10T15:54:57;0.40;1.00
2523;DHT22;1272;53.332;9.860;2022-12-10T15:57:29;0.40;1.00
2523;DHT22;1272;53.332;9.860;2022-12-10T15:59:57;0.30;1.00
2523;DHT22;1272;53.332;9.860;2022-12-10T16:05:31;0.30;1.00
2523;DHT22;1272;53.332;9.860;2022-12-10T16:08:06;0.40;1.00
2523;DHT22;1272;53.332;9.860;2022-12-10T16:10:34;0.30;1.00
2523;DHT22;1272;53.332;9.860;2022-12-10T16:13:03;0.30;1.00
2523;DHT22;1272;53.332;9.860;2022-12-10T16:15:36;0.30;1.00
2523;DHT22;1272;53.332;9.860;2022-12-10T16:18:05;0.30;1.00
2523;DHT22;1272;53.332;9.860;2022-12-10T16:20:32;0.30;1.00
2523;DHT22;1272;53.332;9.860;2022-12-10T16:22:58;0.30;1.00
2523;DHT22;1272;53.332;9.860;2022-12-10T16:25:29;0.30;1.00
2523;DHT22;1272;53.332;9.860;2022-12-10T16:27:55;0.30;1.00
2523;DHT22;1272;53.332;9.860;2022-12-10T16:30:29;0.30;1.00
2523;DHT22;1272;53.332;9.860;2022-12-10T16:32:56;0.40;1.00
2523;DHT22;1272;53.332;9.860;2022-12-10T16:35:22;0.30;1.00
2523;DHT22;1272;53.332;9.860;2022-12-10T16:37:48;0.40;1.00
2523;DHT22;1272;53.332;9.860;2022-12-10T16:40:20;0.40;1.00
2523;DHT22;1272;53.332;9.860;2022-12-10T16:42:46;0.40;1.00
2523;DHT22;1272;53.332;9.860;2022-12-10T16:45:18;0.40;1.00
2523;DHT22;1272;53.332;9.860;2022-12-10T16:47:45;0.50;1.00
2523;DHT22;1272;53.332;9.860;2022-12-10T16:50:12;0.40;1.00
2523;DHT22;1272;53.332;9.860;2022-12-10T16:52:38;0.30;1.00
2523;DHT22;1272;53.332;9.860;2022-12-10T16:55:05;0.30;1.00
2523;DHT22;1272;53.332;9.860;2022-12-10T16:57:31;0.30;1.00
2523;DHT22;1272;53.332;9.860;2022-12-10T16:59:56;0.20;99.90
2523;DHT22;1272;53.332;9.860;2022-12-10T17:02:22;0.20;1.00
2523;DHT22;1272;53.332;9.860;2022-12-10T17:04:48;0.10;1.00
2523;DHT22;1272;53.332;9.860;2022-12-10T17:07:14;0.20;1.00
2523;DHT22;1272;53.332;9.860;2022-12-10T17:09:40;0.20;1.00
2523;DHT22;1272;53.332;9.860;2022-12-10T17:12:08;0.20;1.00
2523;DHT22;1272;53.332;9.860;2022-12-10T17:14:39;0.20;1.00
2523;DHT22;1272;53.332;9.860;2022-12-10T17:17:08;0.20;1.00
2523;DHT22;1272;53.332;9.860;2022-12-10T17:19:36;0.20;1.00
2523;DHT22;1272;53.332;9.860;2022-12-10T17:22:03;0.20;1.00
2523;DHT22;1272;53.332;9.860;2022-12-10T17:24:30;0.20;1.00
2523;DHT22;1272;53.332;9.860;2022-12-10T17:27:02;0.20;1.00
2523;DHT22;1272;53.332;9.860;2022-12-10T17:29:42;0.30;99.90
2523;DHT22;1272;53.332;9.860;2022-12-10T17:32:12;0.20;99.90
2523;DHT22;1272;53.332;9.860;2022-12-10T17:34:39;0.20;99.90
2523;DHT22;1272;53.332;9.860;2022-12-10T17:37:13;0.20;99.90
2523;DHT22;1272;53.332;9.860;2022-12-10T17:39:40;0.20;1.00
2523;DHT22;1272;53.332;9.860;2022-12-10T17:42:05;0.10;1.00
2523;DHT22;1272;53.332;9.860;2022-12-10T17:44:36;0.10;1.00
2523;DHT22;1272;53.332;9.860;2022-12-10T17:47:16;0.10;1.00
2523;DHT22;1272;53.332;9.860;2022-12-10T17:49:44;0.20;1.00
2523;DHT22;1272;53.332;9.860;2022-12-10T17:52:10;0.10;99.90
2523;DHT22;1272;53.332;9.860;2022-12-10T17:54:35;0.10;99.90
2523;DHT22;1272;53.332;9.860;2022-12-10T17:57:01;0.10;1.00
2523;DHT22;1272;53.332;9.860;2022-12-10T17:59:28;0.10;1.00
2523;DHT22;1272;53.332;9.860;2022-12-10T18:01:53;0.10;1.00
2523;DHT22;1272;53.332;9.860;2022-12-10T18:04:19;0.10;1.00
2523;DHT22;1272;53.332;9.860;2022-12-10T18:06:45;0.10;1.00
2523;DHT22;1272;53.332;9.860;2022-12-10T18:09:11;0.10;1.00
2523;DHT22;1272;53.332;9.860;2022-12-10T18:11:38;0.10;1.00
2523;DHT22;1272;53.332;9.860;2022-12-10T18:14:06;0.10;99.90
2523;DHT22;1272;53.332;9.860;2022-12-10T18:16:34;0.20;99.90
2523;DHT22;1272;53.332;9.860;2022-12-10T18:19:01;0.10;99.90
2523;DHT22;1272;53.332;9.860;2022-12-10T18:21:27;0.10;1.00
2523;DHT22;1272;53.332;9.860;2022-12-10T18:23:53;0.10;1.00
2523;DHT22;1272;53.332;9.860;2022-12-10T18:26:22;0.10;1.00
2523;DHT22;1272;53.332;9.860;2022-12-10T18:28:50;0.10;1.00
2523;DHT22;1272;53.332;9.860;2022-12-10T18:31:23;0.10;1.00
2523;DHT22;1272;53.332;9.860;2022-12-10T18:33:51;0.10;1.00
2523;DHT22;1272;53.332;9.860;2022-12-10T18:36:20;0.20;1.00
2523;DHT22;1272;53.332;9.860;2022-12-10T18:38:46;0.20;99.90
2523;DHT22;1272;53.332;9.860;2022-12-10T18:41:14;0.10;99.90
2523;DHT22;1272;53.332;9.860;2022-12-10T18:43:40;0.10;99.90
2523;DHT22;1272;53.332;9.860;2022-12-10T18:46:10;0.10;99.90
2523;DHT22;1272;53.332;9.860;2022-12-10T18:48:36;0.10;99.90
2523;DHT22;1272;53.332;9.860;2022-12-10T18:51:05;0.10;99.90
2523;DHT22;1272;53.332;9.860;2022-12-10T18:53:31;0.10;99.90
2523;DHT22;1272;53.332;9.860;2022-12-10T18:55:57;0.00;99.90
2523;DHT22;1272;53.332;9.860;2022-12-10T18:58:23;0.00;99.90
2523;DHT22;1272;53.332;9.860;2022-12-10T19:00:48;0.10;1.00
2523;DHT22;1272;53.332;9.860;2022-12-10T19:03:14;0.00;10.40
2523;DHT22;1272;53.332;9.860;2022-12-10T19:05:40;0.00;99.90